Huvudsida
METAR-TAF:

METAR-TAF

Flygplatser :

Scatsta Airport

Scatsta, Shetlandsöarna, Skottland

latitud: 60-26N, longitud: 001-18W, höjd: 22 m

Aktuellt väderrapport

Denna rapport gjordes för 31 minuter sedan, klockan 18:20 UTC
Vind 19 kt från syd/sydost
Temperatur 11°C
Fuktighet 82%
Tryck 1027 hPa
Sikt 10 km eller mer

METAR: EGPM 291820Z AUTO 15019KT 9999 NCD 11/08 Q1027

Tid: 19:51 (18:51 UTC)

Väderprognos

Denna rapport gjordes för 4 timmar och 56 minuter sedan, klockan 13:55 UTC
Prognos gäller från 29 kl. 15 UTC till 29 kl. 18 UTC
Vind 14 kt från sydost
Sikt 10 km eller mer
Få moln på en höjd av 1000 ft
Sannolikhet 40% :
Temporärt
från 29 kl. 15 UTC till 29 kl. 18 UTC
Vind 17 kt från syd/sydost i byarna ända upp till 27 kt
Sannolikhet 30% :
Temporärt
från 29 kl. 15 UTC till 29 kl. 18 UTC
Brutna moln på en höjd av 500 ft

TAF: EGPM 291355Z 2915/2918 14014KT 9999 FEW010 PROB40 TEMPO 2915/2918 16017G27KT PROB30 TEMPO 2915/2918 BKN005

Aktuella väderrapporter och prognoser från 4000 flygplatser (METAR- och TAF-rapporter).

De tillgängliga stationerna syns som gula och röda prickar på kartan.

För musen över prickarna för att se namnen på stationerna.

Klicka sedan för att få väderrapporter och prognoser.

För att ändra kartan: Klicka på de gröna knapparna med ett svart kors på för att zooma in; den gröna knappen med ett streck på för att zooma ut; eller på de gröna pilarna för angränsande kartor.


METAR-TAF: